sensor_id;sensor_type;location;lat;lon;timestamp;P1;durP1;ratioP1;P2;durP2;ratioP2
10661;SDS011;5379;51.034;7.006;2024-01-25T00:01:52;12.63;;;4.87;;
10661;SDS011;5379;51.034;7.006;2024-01-25T00:04:19;17.90;;;4.27;;
10661;SDS011;5379;51.034;7.006;2024-01-25T00:06:46;9.73;;;5.00;;
10661;SDS011;5379;51.034;7.006;2024-01-25T00:09:13;8.03;;;4.27;;
10661;SDS011;5379;51.034;7.006;2024-01-25T00:11:40;24.37;;;4.43;;
10661;SDS011;5379;51.034;7.006;2024-01-25T00:14:08;16.77;;;4.53;;
10661;SDS011;5379;51.034;7.006;2024-01-25T00:16:35;13.97;;;5.43;;
10661;SDS011;5379;51.034;7.006;2024-01-25T00:19:01;15.67;;;4.67;;
10661;SDS011;5379;51.034;7.006;2024-01-25T00:21:28;12.03;;;5.37;;
10661;SDS011;5379;51.034;7.006;2024-01-25T00:23:55;40.17;;;5.47;;
10661;SDS011;5379;51.034;7.006;2024-01-25T00:26:22;13.83;;;5.50;;
10661;SDS011;5379;51.034;7.006;2024-01-25T00:28:49;13.87;;;4.53;;
10661;SDS011;5379;51.034;7.006;2024-01-25T00:31:17;17.13;;;5.90;;
10661;SDS011;5379;51.034;7.006;2024-01-25T00:33:44;21.87;;;6.27;;
10661;SDS011;5379;51.034;7.006;2024-01-25T00:36:11;24.57;;;6.10;;
10661;SDS011;5379;51.034;7.006;2024-01-25T00:38:39;12.97;;;4.87;;
10661;SDS011;5379;51.034;7.006;2024-01-25T00:41:06;7.30;;;3.90;;
10661;SDS011;5379;51.034;7.006;2024-01-25T00:43:35;11.07;;;4.90;;
10661;SDS011;5379;51.034;7.006;2024-01-25T00:46:02;17.37;;;5.67;;
10661;SDS011;5379;51.034;7.006;2024-01-25T00:48:31;34.23;;;5.27;;
10661;SDS011;5379;51.034;7.006;2024-01-25T00:50:58;32.53;;;5.83;;
10661;SDS011;5379;51.034;7.006;2024-01-25T00:53:26;12.70;;;4.70;;
10661;SDS011;5379;51.034;7.006;2024-01-25T00:55:53;29.77;;;5.67;;
10661;SDS011;5379;51.034;7.006;2024-01-25T00:58:20;13.33;;;5.30;;
10661;SDS011;5379;51.034;7.006;2024-01-25T05:31:29;16.93;;;6.17;;
10661;SDS011;5379;51.034;7.006;2024-01-25T05:33:56;20.23;;;5.60;;
10661;SDS011;5379;51.034;7.006;2024-01-25T05:36:23;17.87;;;6.93;;
10661;SDS011;5379;51.034;7.006;2024-01-25T05:38:50;14.03;;;5.77;;
10661;SDS011;5379;51.034;7.006;2024-01-25T05:41:16;18.10;;;6.00;;
10661;SDS011;5379;51.034;7.006;2024-01-25T05:43:44;12.77;;;5.47;;
10661;SDS011;5379;51.034;7.006;2024-01-25T05:46:10;18.10;;;5.70;;
10661;SDS011;5379;51.034;7.006;2024-01-25T05:48:38;14.97;;;5.47;;
10661;SDS011;5379;51.034;7.006;2024-01-25T05:51:05;17.30;;;5.43;;
10661;SDS011;5379;51.034;7.006;2024-01-25T05:53:32;21.47;;;5.80;;
10661;SDS011;5379;51.034;7.006;2024-01-25T05:56:00;18.33;;;5.17;;
10661;SDS011;5379;51.034;7.006;2024-01-25T05:58:29;22.13;;;5.30;;
10661;SDS011;5379;51.034;7.006;2024-01-25T06:00:56;31.60;;;7.63;;
10661;SDS011;5379;51.034;7.006;2024-01-25T06:03:23;14.73;;;5.30;;
10661;SDS011;5379;51.034;7.006;2024-01-25T06:05:51;13.80;;;5.93;;
10661;SDS011;5379;51.034;7.006;2024-01-25T06:08:17;13.90;;;5.70;;
10661;SDS011;5379;51.034;7.006;2024-01-25T06:10:44;21.23;;;6.53;;
10661;SDS011;5379;51.034;7.006;2024-01-25T06:13:11;21.50;;;5.87;;
10661;SDS011;5379;51.034;7.006;2024-01-25T06:15:38;27.60;;;6.47;;
10661;SDS011;5379;51.034;7.006;2024-01-25T06:18:05;19.97;;;6.33;;
10661;SDS011;5379;51.034;7.006;2024-01-25T06:20:32;11.47;;;5.23;;
10661;SDS011;5379;51.034;7.006;2024-01-25T06:23:00;35.17;;;6.43;;
10661;SDS011;5379;51.034;7.006;2024-01-25T06:25:27;38.50;;;5.97;;
10661;SDS011;5379;51.034;7.006;2024-01-25T06:27:55;20.23;;;6.27;;
10661;SDS011;5379;51.034;7.006;2024-01-25T06:30:23;25.63;;;6.33;;
10661;SDS011;5379;51.034;7.006;2024-01-25T06:32:50;19.23;;;5.73;;
10661;SDS011;5379;51.034;7.006;2024-01-25T06:35:17;38.23;;;6.73;;
10661;SDS011;5379;51.034;7.006;2024-01-25T06:37:44;14.17;;;5.50;;
10661;SDS011;5379;51.034;7.006;2024-01-25T06:40:12;13.50;;;5.03;;
10661;SDS011;5379;51.034;7.006;2024-01-25T06:42:39;14.33;;;5.33;;
10661;SDS011;5379;51.034;7.006;2024-01-25T06:45:07;10.47;;;5.50;;
10661;SDS011;5379;51.034;7.006;2024-01-25T06:47:35;15.33;;;6.47;;
10661;SDS011;5379;51.034;7.006;2024-01-25T06:50:02;17.03;;;6.33;;
10661;SDS011;5379;51.034;7.006;2024-01-25T06:52:29;19.93;;;5.57;;
10661;SDS011;5379;51.034;7.006;2024-01-25T06:54:56;26.20;;;6.83;;
10661;SDS011;5379;51.034;7.006;2024-01-25T06:57:24;14.90;;;5.73;;
10661;SDS011;5379;51.034;7.006;2024-01-25T06:59:50;18.93;;;5.53;;
10661;SDS011;5379;51.034;7.006;2024-01-25T07:02:17;21.83;;;6.27;;
10661;SDS011;5379;51.034;7.006;2024-01-25T07:04:43;21.97;;;6.67;;
10661;SDS011;5379;51.034;7.006;2024-01-25T07:07:10;15.57;;;6.10;;
10661;SDS011;5379;51.034;7.006;2024-01-25T07:09:37;23.10;;;7.90;;
10661;SDS011;5379;51.034;7.006;2024-01-25T07:12:04;18.80;;;5.63;;
10661;SDS011;5379;51.034;7.006;2024-01-25T07:14:33;26.80;;;6.63;;
10661;SDS011;5379;51.034;7.006;2024-01-25T07:17:00;14.10;;;5.87;;
10661;SDS011;5379;51.034;7.006;2024-01-25T07:19:27;30.53;;;6.30;;
10661;SDS011;5379;51.034;7.006;2024-01-25T07:21:53;11.50;;;5.53;;
10661;SDS011;5379;51.034;7.006;2024-01-25T07:24:21;26.70;;;7.37;;
10661;SDS011;5379;51.034;7.006;2024-01-25T07:26:47;20.33;;;6.27;;
10661;SDS011;5379;51.034;7.006;2024-01-25T07:29:14;15.63;;;7.20;;
10661;SDS011;5379;51.034;7.006;2024-01-25T07:31:42;13.90;;;6.43;;
10661;SDS011;5379;51.034;7.006;2024-01-25T07:34:09;12.07;;;5.63;;
10661;SDS011;5379;51.034;7.006;2024-01-25T07:36:36;12.87;;;6.87;;
10661;SDS011;5379;51.034;7.006;2024-01-25T07:39:03;16.80;;;6.43;;
10661;SDS011;5379;51.034;7.006;2024-01-25T07:41:30;19.77;;;6.10;;
10661;SDS011;5379;51.034;7.006;2024-01-25T07:43:57;13.00;;;5.90;;
10661;SDS011;5379;51.034;7.006;2024-01-25T07:46:24;15.67;;;6.43;;
10661;SDS011;5379;51.034;7.006;2024-01-25T07:48:52;20.20;;;6.50;;
10661;SDS011;5379;51.034;7.006;2024-01-25T07:51:19;12.90;;;5.93;;
10661;SDS011;5379;51.034;7.006;2024-01-25T07:53:45;17.33;;;6.47;;
10661;SDS011;5379;51.034;7.006;2024-01-25T07:56:12;23.03;;;6.83;;
10661;SDS011;5379;51.034;7.006;2024-01-25T07:58:39;13.00;;;6.03;;
10661;SDS011;5379;51.034;7.006;2024-01-25T08:01:07;12.80;;;6.00;;
10661;SDS011;5379;51.034;7.006;2024-01-25T08:03:34;34.70;;;8.00;;
10661;SDS011;5379;51.034;7.006;2024-01-25T08:06:05;9.93;;;5.30;;
10661;SDS011;5379;51.034;7.006;2024-01-25T08:08:32;17.40;;;6.23;;
10661;SDS011;5379;51.034;7.006;2024-01-25T08:10:59;18.13;;;7.00;;
10661;SDS011;5379;51.034;7.006;2024-01-25T08:13:26;14.93;;;7.10;;
10661;SDS011;5379;51.034;7.006;2024-01-25T08:15:53;19.50;;;6.63;;
10661;SDS011;5379;51.034;7.006;2024-01-25T08:18:20;24.90;;;7.17;;
10661;SDS011;5379;51.034;7.006;2024-01-25T08:20:48;14.43;;;5.63;;
10661;SDS011;5379;51.034;7.006;2024-01-25T08:23:16;19.30;;;6.77;;
10661;SDS011;5379;51.034;7.006;2024-01-25T08:25:43;17.80;;;7.73;;
10661;SDS011;5379;51.034;7.006;2024-01-25T08:28:10;20.27;;;7.53;;
10661;SDS011;5379;51.034;7.006;2024-01-25T08:30:37;21.70;;;7.30;;
10661;SDS011;5379;51.034;7.006;2024-01-25T08:33:04;24.83;;;6.83;;
10661;SDS011;5379;51.034;7.006;2024-01-25T08:35:31;42.73;;;7.93;;
10661;SDS011;5379;51.034;7.006;2024-01-25T08:37:57;15.93;;;7.07;;
10661;SDS011;5379;51.034;7.006;2024-01-25T08:40:26;20.93;;;6.70;;
10661;SDS011;5379;51.034;7.006;2024-01-25T08:42:52;19.83;;;6.60;;
10661;SDS011;5379;51.034;7.006;2024-01-25T08:45:21;23.57;;;7.33;;
10661;SDS011;5379;51.034;7.006;2024-01-25T08:47:51;24.90;;;6.40;;
10661;SDS011;5379;51.034;7.006;2024-01-25T08:50:18;13.50;;;6.57;;
10661;SDS011;5379;51.034;7.006;2024-01-25T08:52:45;20.03;;;6.93;;
10661;SDS011;5379;51.034;7.006;2024-01-25T08:55:12;12.07;;;5.87;;
10661;SDS011;5379;51.034;7.006;2024-01-25T08:57:41;14.87;;;6.90;;
10661;SDS011;5379;51.034;7.006;2024-01-25T09:00:08;26.30;;;7.57;;
10661;SDS011;5379;51.034;7.006;2024-01-25T09:02:36;10.73;;;6.07;;
10661;SDS011;5379;51.034;7.006;2024-01-25T09:05:03;14.80;;;7.03;;
10661;SDS011;5379;51.034;7.006;2024-01-25T09:07:30;20.73;;;7.43;;
10661;SDS011;5379;51.034;7.006;2024-01-25T09:09:57;18.33;;;7.40;;
10661;SDS011;5379;51.034;7.006;2024-01-25T09:12:24;19.13;;;8.70;;
10661;SDS011;5379;51.034;7.006;2024-01-25T09:14:52;26.93;;;8.93;;
10661;SDS011;5379;51.034;7.006;2024-01-25T09:17:19;35.00;;;9.40;;
10661;SDS011;5379;51.034;7.006;2024-01-25T09:19:47;19.90;;;9.57;;
10661;SDS011;5379;51.034;7.006;2024-01-25T09:22:16;18.47;;;6.87;;
10661;SDS011;5379;51.034;7.006;2024-01-25T09:24:44;28.33;;;8.23;;
10661;SDS011;5379;51.034;7.006;2024-01-25T09:27:11;17.70;;;8.27;;
10661;SDS011;5379;51.034;7.006;2024-01-25T09:29:38;18.57;;;8.90;;
10661;SDS011;5379;51.034;7.006;2024-01-25T09:32:07;18.80;;;8.27;;
10661;SDS011;5379;51.034;7.006;2024-01-25T09:34:34;33.47;;;9.17;;
10661;SDS011;5379;51.034;7.006;2024-01-25T09:37:02;19.33;;;8.10;;
10661;SDS011;5379;51.034;7.006;2024-01-25T09:39:29;15.20;;;8.77;;
10661;SDS011;5379;51.034;7.006;2024-01-25T09:41:56;41.40;;;10.07;;
10661;SDS011;5379;51.034;7.006;2024-01-25T09:44:24;24.33;;;9.63;;
10661;SDS011;5379;51.034;7.006;2024-01-25T09:46:51;11.40;;;7.27;;
10661;SDS011;5379;51.034;7.006;2024-01-25T09:49:19;23.23;;;8.13;;
10661;SDS011;5379;51.034;7.006;2024-01-25T09:51:46;13.17;;;7.53;;
10661;SDS011;5379;51.034;7.006;2024-01-25T09:54:16;21.67;;;9.00;;
10661;SDS011;5379;51.034;7.006;2024-01-25T09:56:43;16.43;;;8.17;;
10661;SDS011;5379;51.034;7.006;2024-01-25T09:59:11;24.67;;;8.60;;
10661;SDS011;5379;51.034;7.006;2024-01-25T10:01:39;16.87;;;9.23;;
10661;SDS011;5379;51.034;7.006;2024-01-25T10:04:06;38.80;;;8.43;;
10661;SDS011;5379;51.034;7.006;2024-01-25T10:06:35;18.97;;;8.97;;
10661;SDS011;5379;51.034;7.006;2024-01-25T10:09:03;23.43;;;9.63;;
10661;SDS011;5379;51.034;7.006;2024-01-25T10:11:35;18.50;;;8.30;;
10661;SDS011;5379;51.034;7.006;2024-01-25T10:14:05;17.13;;;8.63;;
10661;SDS011;5379;51.034;7.006;2024-01-25T10:16:34;39.17;;;10.17;;
10661;SDS011;5379;51.034;7.006;2024-01-25T10:19:06;27.17;;;9.17;;
10661;SDS011;5379;51.034;7.006;2024-01-25T10:21:41;21.93;;;9.80;;
10661;SDS011;5379;51.034;7.006;2024-01-25T10:24:17;21.47;;;9.30;;
10661;SDS011;5379;51.034;7.006;2024-01-25T10:29:47;15.07;;;8.30;;
10661;SDS011;5379;51.034;7.006;2024-01-25T10:32:16;20.77;;;8.83;;
10661;SDS011;5379;51.034;7.006;2024-01-25T10:34:43;16.60;;;8.40;;
10661;SDS011;5379;51.034;7.006;2024-01-25T10:37:14;16.67;;;8.83;;
10661;SDS011;5379;51.034;7.006;2024-01-25T10:39:42;27.50;;;8.13;;
10661;SDS011;5379;51.034;7.006;2024-01-25T10:42:10;16.33;;;8.80;;
10661;SDS011;5379;51.034;7.006;2024-01-25T10:44:37;22.73;;;9.20;;
10661;SDS011;5379;51.034;7.006;2024-01-25T10:47:05;15.40;;;9.07;;
10661;SDS011;5379;51.034;7.006;2024-01-25T10:49:33;27.43;;;10.13;;
10661;SDS011;5379;51.034;7.006;2024-01-25T10:52:01;21.80;;;9.47;;
10661;SDS011;5379;51.034;7.006;2024-01-25T10:54:32;42.60;;;8.80;;
10661;SDS011;5379;51.034;7.006;2024-01-25T10:57:00;16.23;;;9.93;;
10661;SDS011;5379;51.034;7.006;2024-01-25T10:59:27;15.77;;;9.57;;
10661;SDS011;5379;51.034;7.006;2024-01-25T11:01:55;14.20;;;8.77;;
10661;SDS011;5379;51.034;7.006;2024-01-25T11:04:23;17.10;;;9.30;;
10661;SDS011;5379;51.034;7.006;2024-01-25T11:06:50;20.27;;;9.43;;
10661;SDS011;5379;51.034;7.006;2024-01-25T11:09:17;23.97;;;9.53;;
10661;SDS011;5379;51.034;7.006;2024-01-25T11:11:47;42.73;;;10.27;;
10661;SDS011;5379;51.034;7.006;2024-01-25T11:14:15;27.00;;;9.60;;
10661;SDS011;5379;51.034;7.006;2024-01-25T11:16:45;15.97;;;8.47;;
10661;SDS011;5379;51.034;7.006;2024-01-25T11:19:16;12.97;;;8.00;;
10661;SDS011;5379;51.034;7.006;2024-01-25T11:21:44;21.73;;;7.90;;
10661;SDS011;5379;51.034;7.006;2024-01-25T11:24:12;21.20;;;10.43;;
10661;SDS011;5379;51.034;7.006;2024-01-25T11:26:40;23.67;;;8.63;;
10661;SDS011;5379;51.034;7.006;2024-01-25T11:29:09;17.00;;;9.83;;
10661;SDS011;5379;51.034;7.006;2024-01-25T11:31:36;15.40;;;7.90;;
10661;SDS011;5379;51.034;7.006;2024-01-25T11:34:03;26.93;;;9.93;;
10661;SDS011;5379;51.034;7.006;2024-01-25T11:36:30;12.03;;;7.23;;
10661;SDS011;5379;51.034;7.006;2024-01-25T11:38:57;11.20;;;6.23;;
10661;SDS011;5379;51.034;7.006;2024-01-25T11:41:24;9.77;;;6.27;;
10661;SDS011;5379;51.034;7.006;2024-01-25T11:43:52;23.93;;;6.33;;
10661;SDS011;5379;51.034;7.006;2024-01-25T11:46:21;26.00;;;7.17;;
10661;SDS011;5379;51.034;7.006;2024-01-25T11:48:48;15.80;;;6.63;;
10661;SDS011;5379;51.034;7.006;2024-01-25T11:51:15;9.90;;;6.40;;
10661;SDS011;5379;51.034;7.006;2024-01-25T11:53:42;14.07;;;5.00;;
10661;SDS011;5379;51.034;7.006;2024-01-25T11:56:09;15.97;;;6.50;;
10661;SDS011;5379;51.034;7.006;2024-01-25T11:58:38;43.33;;;6.50;;
10661;SDS011;5379;51.034;7.006;2024-01-25T12:01:06;18.93;;;6.27;;
10661;SDS011;5379;51.034;7.006;2024-01-25T12:03:35;15.80;;;5.83;;
10661;SDS011;5379;51.034;7.006;2024-01-25T12:06:02;20.10;;;6.23;;
10661;SDS011;5379;51.034;7.006;2024-01-25T12:08:31;21.03;;;6.53;;
10661;SDS011;5379;51.034;7.006;2024-01-25T12:11:04;15.60;;;5.30;;
10661;SDS011;5379;51.034;7.006;2024-01-25T12:13:32;10.00;;;5.63;;
10661;SDS011;5379;51.034;7.006;2024-01-25T12:16:00;5.70;;;4.00;;
10661;SDS011;5379;51.034;7.006;2024-01-25T12:18:27;13.23;;;5.73;;
10661;SDS011;5379;51.034;7.006;2024-01-25T12:20:57;9.10;;;4.63;;
10661;SDS011;5379;51.034;7.006;2024-01-25T12:23:29;13.23;;;5.80;;
10661;SDS011;5379;51.034;7.006;2024-01-25T12:25:58;21.97;;;4.63;;
10661;SDS011;5379;51.034;7.006;2024-01-25T12:28:26;9.17;;;4.90;;
10661;SDS011;5379;51.034;7.006;2024-01-25T12:30:53;10.83;;;4.87;;
10661;SDS011;5379;51.034;7.006;2024-01-25T12:33:20;9.70;;;4.83;;
10661;SDS011;5379;51.034;7.006;2024-01-25T12:35:47;17.87;;;5.23;;
10661;SDS011;5379;51.034;7.006;2024-01-25T12:38:16;10.03;;;4.70;;
10661;SDS011;5379;51.034;7.006;2024-01-25T12:40:43;10.40;;;4.63;;
10661;SDS011;5379;51.034;7.006;2024-01-25T12:43:12;19.80;;;5.03;;
10661;SDS011;5379;51.034;7.006;2024-01-25T12:45:39;9.80;;;5.43;;
10661;SDS011;5379;51.034;7.006;2024-01-25T12:48:09;5.53;;;3.80;;
10661;SDS011;5379;51.034;7.006;2024-01-25T12:50:37;11.63;;;4.90;;
10661;SDS011;5379;51.034;7.006;2024-01-25T12:53:04;11.10;;;4.83;;
10661;SDS011;5379;51.034;7.006;2024-01-25T12:55:33;13.43;;;4.67;;
10661;SDS011;5379;51.034;7.006;2024-01-25T12:58:00;13.10;;;4.97;;
10661;SDS011;5379;51.034;7.006;2024-01-25T13:00:27;12.33;;;4.87;;
10661;SDS011;5379;51.034;7.006;2024-01-25T13:02:54;10.10;;;4.30;;
10661;SDS011;5379;51.034;7.006;2024-01-25T13:05:21;11.00;;;4.20;;
10661;SDS011;5379;51.034;7.006;2024-01-25T13:07:48;7.93;;;4.43;;
10661;SDS011;5379;51.034;7.006;2024-01-25T13:10:15;11.13;;;4.43;;
10661;SDS011;5379;51.034;7.006;2024-01-25T13:12:43;15.10;;;4.23;;
10661;SDS011;5379;51.034;7.006;2024-01-25T13:15:10;13.97;;;4.63;;
10661;SDS011;5379;51.034;7.006;2024-01-25T13:17:37;19.13;;;4.80;;
10661;SDS011;5379;51.034;7.006;2024-01-25T13:20:04;20.17;;;4.93;;
10661;SDS011;5379;51.034;7.006;2024-01-25T13:22:32;7.90;;;3.80;;
10661;SDS011;5379;51.034;7.006;2024-01-25T13:24:59;6.70;;;4.07;;
10661;SDS011;5379;51.034;7.006;2024-01-25T13:27:26;7.83;;;4.20;;
10661;SDS011;5379;51.034;7.006;2024-01-25T13:29:55;7.33;;;3.90;;
10661;SDS011;5379;51.034;7.006;2024-01-25T13:32:22;9.83;;;4.40;;
10661;SDS011;5379;51.034;7.006;2024-01-25T13:34:49;15.20;;;4.20;;
10661;SDS011;5379;51.034;7.006;2024-01-25T13:37:16;10.97;;;4.53;;
10661;SDS011;5379;51.034;7.006;2024-01-25T13:39:43;19.03;;;4.93;;
10661;SDS011;5379;51.034;7.006;2024-01-25T13:42:10;5.23;;;4.00;;
10661;SDS011;5379;51.034;7.006;2024-01-25T13:44:36;13.03;;;5.10;;
10661;SDS011;5379;51.034;7.006;2024-01-25T13:47:05;13.80;;;4.53;;
10661;SDS011;5379;51.034;7.006;2024-01-25T13:49:32;16.50;;;5.57;;
10661;SDS011;5379;51.034;7.006;2024-01-25T13:52:00;14.83;;;4.33;;
10661;SDS011;5379;51.034;7.006;2024-01-25T13:54:27;12.00;;;4.77;;
10661;SDS011;5379;51.034;7.006;2024-01-25T13:56:54;9.80;;;4.73;;
10661;SDS011;5379;51.034;7.006;2024-01-25T13:59:21;15.83;;;4.87;;
10661;SDS011;5379;51.034;7.006;2024-01-25T14:01:49;12.33;;;4.67;;
10661;SDS011;5379;51.034;7.006;2024-01-25T14:04:17;10.60;;;4.63;;
10661;SDS011;5379;51.034;7.006;2024-01-25T14:06:44;6.37;;;3.53;;
10661;SDS011;5379;51.034;7.006;2024-01-25T14:09:11;10.57;;;4.63;;
10661;SDS011;5379;51.034;7.006;2024-01-25T14:11:38;12.87;;;5.03;;
10661;SDS011;5379;51.034;7.006;2024-01-25T14:14:05;8.80;;;5.17;;
10661;SDS011;5379;51.034;7.006;2024-01-25T14:16:31;6.57;;;4.17;;
10661;SDS011;5379;51.034;7.006;2024-01-25T14:18:58;19.33;;;4.43;;
10661;SDS011;5379;51.034;7.006;2024-01-25T14:21:29;14.87;;;4.07;;
10661;SDS011;5379;51.034;7.006;2024-01-25T14:23:57;27.13;;;4.73;;
10661;SDS011;5379;51.034;7.006;2024-01-25T14:26:23;8.97;;;4.27;;
10661;SDS011;5379;51.034;7.006;2024-01-25T14:28:50;8.00;;;4.13;;
10661;SDS011;5379;51.034;7.006;2024-01-25T14:31:17;8.60;;;4.03;;
10661;SDS011;5379;51.034;7.006;2024-01-25T14:33:44;10.13;;;3.23;;
10661;SDS011;5379;51.034;7.006;2024-01-25T14:36:11;7.00;;;4.33;;
10661;SDS011;5379;51.034;7.006;2024-01-25T14:38:40;12.40;;;4.57;;
10661;SDS011;5379;51.034;7.006;2024-01-25T14:41:07;14.60;;;4.67;;
10661;SDS011;5379;51.034;7.006;2024-01-25T14:43:35;14.83;;;4.17;;
10661;SDS011;5379;51.034;7.006;2024-01-25T14:46:03;11.53;;;3.50;;
10661;SDS011;5379;51.034;7.006;2024-01-25T14:48:30;13.23;;;5.03;;
10661;SDS011;5379;51.034;7.006;2024-01-25T14:50:57;15.20;;;4.60;;
10661;SDS011;5379;51.034;7.006;2024-01-25T14:53:23;17.93;;;4.37;;
10661;SDS011;5379;51.034;7.006;2024-01-25T14:55:52;12.90;;;4.77;;
10661;SDS011;5379;51.034;7.006;2024-01-25T14:58:18;9.27;;;4.10;;
10661;SDS011;5379;51.034;7.006;2024-01-25T15:00:48;6.50;;;3.60;;
10661;SDS011;5379;51.034;7.006;2024-01-25T15:03:15;6.83;;;3.90;;
10661;SDS011;5379;51.034;7.006;2024-01-25T15:05:42;14.03;;;4.30;;
10661;SDS011;5379;51.034;7.006;2024-01-25T15:08:08;12.47;;;4.03;;
10661;SDS011;5379;51.034;7.006;2024-01-25T15:10:35;7.40;;;4.03;;
10661;SDS011;5379;51.034;7.006;2024-01-25T15:13:03;14.07;;;3.83;;
10661;SDS011;5379;51.034;7.006;2024-01-25T15:15:30;12.53;;;3.63;;
10661;SDS011;5379;51.034;7.006;2024-01-25T15:17:57;8.13;;;4.10;;
10661;SDS011;5379;51.034;7.006;2024-01-25T15:20:24;7.27;;;3.97;;
10661;SDS011;5379;51.034;7.006;2024-01-25T15:22:51;7.77;;;3.37;;
10661;SDS011;5379;51.034;7.006;2024-01-25T15:25:17;5.67;;;3.93;;
10661;SDS011;5379;51.034;7.006;2024-01-25T15:27:45;10.70;;;4.35;;
10661;SDS011;5379;51.034;7.006;2024-01-25T15:30:13;7.33;;;3.73;;
10661;SDS011;5379;51.034;7.006;2024-01-25T15:32:42;6.70;;;3.77;;
10661;SDS011;5379;51.034;7.006;2024-01-25T15:35:11;14.73;;;4.73;;
10661;SDS011;5379;51.034;7.006;2024-01-25T15:37:38;7.87;;;3.93;;
10661;SDS011;5379;51.034;7.006;2024-01-25T15:40:07;9.20;;;3.93;;
10661;SDS011;5379;51.034;7.006;2024-01-25T15:42:36;16.17;;;4.43;;
10661;SDS011;5379;51.034;7.006;2024-01-25T15:45:04;7.27;;;3.17;;
10661;SDS011;5379;51.034;7.006;2024-01-25T15:47:34;8.97;;;4.50;;
10661;SDS011;5379;51.034;7.006;2024-01-25T15:50:01;9.90;;;4.30;;
10661;SDS011;5379;51.034;7.006;2024-01-25T15:52:30;9.80;;;4.17;;
10661;SDS011;5379;51.034;7.006;2024-01-25T15:54:57;15.60;;;5.17;;
10661;SDS011;5379;51.034;7.006;2024-01-25T15:57:24;11.47;;;3.80;;
10661;SDS011;5379;51.034;7.006;2024-01-25T15:59:50;9.73;;;4.87;;
10661;SDS011;5379;51.034;7.006;2024-01-25T16:02:17;7.00;;;4.23;;
10661;SDS011;5379;51.034;7.006;2024-01-25T16:04:45;7.93;;;3.17;;
10661;SDS011;5379;51.034;7.006;2024-01-25T16:07:12;16.60;;;4.97;;
10661;SDS011;5379;51.034;7.006;2024-01-25T16:09:39;10.97;;;4.20;;
10661;SDS011;5379;51.034;7.006;2024-01-25T16:12:07;26.97;;;4.67;;
10661;SDS011;5379;51.034;7.006;2024-01-25T16:14:35;7.10;;;3.73;;
10661;SDS011;5379;51.034;7.006;2024-01-25T16:17:02;10.63;;;4.83;;
10661;SDS011;5379;51.034;7.006;2024-01-25T16:19:29;11.77;;;3.93;;
10661;SDS011;5379;51.034;7.006;2024-01-25T16:21:57;7.87;;;3.50;;
10661;SDS011;5379;51.034;7.006;2024-01-25T16:24:24;7.03;;;3.87;;
10661;SDS011;5379;51.034;7.006;2024-01-25T16:26:51;6.87;;;3.43;;
10661;SDS011;5379;51.034;7.006;2024-01-25T16:29:17;9.90;;;4.30;;
10661;SDS011;5379;51.034;7.006;2024-01-25T16:31:44;15.23;;;4.10;;
10661;SDS011;5379;51.034;7.006;2024-01-25T16:34:11;6.97;;;3.90;;
10661;SDS011;5379;51.034;7.006;2024-01-25T16:36:38;11.07;;;4.10;;
10661;SDS011;5379;51.034;7.006;2024-01-25T16:39:06;8.43;;;3.93;;
10661;SDS011;5379;51.034;7.006;2024-01-25T16:41:33;6.10;;;3.43;;
10661;SDS011;5379;51.034;7.006;2024-01-25T16:44:00;8.80;;;2.90;;
10661;SDS011;5379;51.034;7.006;2024-01-25T16:46:26;5.60;;;3.30;;
10661;SDS011;5379;51.034;7.006;2024-01-25T16:48:55;12.23;;;3.60;;
10661;SDS011;5379;51.034;7.006;2024-01-25T16:51:22;11.17;;;4.17;;
10661;SDS011;5379;51.034;7.006;2024-01-25T16:53:48;5.47;;;3.47;;
10661;SDS011;5379;51.034;7.006;2024-01-25T16:56:17;8.83;;;3.50;;
10661;SDS011;5379;51.034;7.006;2024-01-25T16:58:43;6.03;;;3.57;;
10661;SDS011;5379;51.034;7.006;2024-01-25T17:01:10;19.53;;;4.50;;
10661;SDS011;5379;51.034;7.006;2024-01-25T17:03:37;13.17;;;5.10;;
10661;SDS011;5379;51.034;7.006;2024-01-25T17:06:04;6.77;;;3.60;;
10661;SDS011;5379;51.034;7.006;2024-01-25T17:08:33;5.60;;;3.57;;
10661;SDS011;5379;51.034;7.006;2024-01-25T17:11:00;8.97;;;3.63;;
10661;SDS011;5379;51.034;7.006;2024-01-25T17:13:28;11.63;;;4.50;;
10661;SDS011;5379;51.034;7.006;2024-01-25T17:15:55;7.97;;;3.87;;
10661;SDS011;5379;51.034;7.006;2024-01-25T17:18:21;10.60;;;3.97;;
10661;SDS011;5379;51.034;7.006;2024-01-25T17:20:48;10.57;;;4.10;;
10661;SDS011;5379;51.034;7.006;2024-01-25T17:23:15;20.83;;;4.23;;
10661;SDS011;5379;51.034;7.006;2024-01-25T17:25:42;11.07;;;4.30;;
10661;SDS011;5379;51.034;7.006;2024-01-25T17:28:09;3.27;;;2.97;;
10661;SDS011;5379;51.034;7.006;2024-01-25T17:30:37;5.00;;;3.00;;
10661;SDS011;5379;51.034;7.006;2024-01-25T17:33:04;9.57;;;3.83;;
10661;SDS011;5379;51.034;7.006;2024-01-25T17:35:31;15.90;;;4.43;;
10661;SDS011;5379;51.034;7.006;2024-01-25T17:37:58;12.17;;;4.10;;
10661;SDS011;5379;51.034;7.006;2024-01-25T17:40:25;11.57;;;4.03;;
10661;SDS011;5379;51.034;7.006;2024-01-25T17:42:51;6.50;;;3.47;;
10661;SDS011;5379;51.034;7.006;2024-01-25T17:45:18;9.20;;;3.90;;
10661;SDS011;5379;51.034;7.006;2024-01-25T17:47:46;11.10;;;3.63;;
10661;SDS011;5379;51.034;7.006;2024-01-25T17:50:13;13.30;;;4.13;;
10661;SDS011;5379;51.034;7.006;2024-01-25T17:52:40;7.00;;;3.47;;
10661;SDS011;5379;51.034;7.006;2024-01-25T17:55:07;4.80;;;3.27;;
10661;SDS011;5379;51.034;7.006;2024-01-25T17:57:35;23.83;;;3.73;;
10661;SDS011;5379;51.034;7.006;2024-01-25T18:00:02;14.57;;;4.73;;
10661;SDS011;5379;51.034;7.006;2024-01-25T18:02:29;6.57;;;3.87;;
10661;SDS011;5379;51.034;7.006;2024-01-25T18:04:57;5.50;;;3.97;;
10661;SDS011;5379;51.034;7.006;2024-01-25T18:07:24;16.27;;;4.83;;
10661;SDS011;5379;51.034;7.006;2024-01-25T18:09:51;16.60;;;3.90;;
10661;SDS011;5379;51.034;7.006;2024-01-25T18:12:18;6.37;;;3.73;;
10661;SDS011;5379;51.034;7.006;2024-01-25T18:14:44;7.63;;;4.10;;
10661;SDS011;5379;51.034;7.006;2024-01-25T18:17:11;9.67;;;4.73;;
10661;SDS011;5379;51.034;7.006;2024-01-25T18:19:39;6.33;;;3.73;;
10661;SDS011;5379;51.034;7.006;2024-01-25T18:22:09;11.63;;;5.10;;
10661;SDS011;5379;51.034;7.006;2024-01-25T18:24:36;11.53;;;4.60;;
10661;SDS011;5379;51.034;7.006;2024-01-25T18:27:03;8.13;;;4.23;;
10661;SDS011;5379;51.034;7.006;2024-01-25T18:29:30;11.47;;;4.30;;
10661;SDS011;5379;51.034;7.006;2024-01-25T18:31:58;5.77;;;3.93;;
10661;SDS011;5379;51.034;7.006;2024-01-25T18:34:25;11.20;;;5.00;;
10661;SDS011;5379;51.034;7.006;2024-01-25T18:36:52;11.67;;;5.10;;
10661;SDS011;5379;51.034;7.006;2024-01-25T18:39:20;8.23;;;4.23;;
10661;SDS011;5379;51.034;7.006;2024-01-25T18:41:48;23.23;;;6.90;;
10661;SDS011;5379;51.034;7.006;2024-01-25T18:44:18;8.00;;;4.00;;
10661;SDS011;5379;51.034;7.006;2024-01-25T18:46:45;17.43;;;4.73;;
10661;SDS011;5379;51.034;7.006;2024-01-25T18:49:12;9.83;;;4.93;;
10661;SDS011;5379;51.034;7.006;2024-01-25T18:51:39;10.53;;;4.87;;
10661;SDS011;5379;51.034;7.006;2024-01-25T18:54:06;15.40;;;4.93;;
10661;SDS011;5379;51.034;7.006;2024-01-25T18:56:38;11.37;;;4.93;;
10661;SDS011;5379;51.034;7.006;2024-01-25T18:59:06;23.30;;;4.83;;
10661;SDS011;5379;51.034;7.006;2024-01-25T19:01:34;6.30;;;3.97;;
10661;SDS011;5379;51.034;7.006;2024-01-25T19:04:02;12.53;;;6.23;;
10661;SDS011;5379;51.034;7.006;2024-01-25T19:06:31;10.70;;;5.10;;
10661;SDS011;5379;51.034;7.006;2024-01-25T19:08:59;8.97;;;4.67;;
10661;SDS011;5379;51.034;7.006;2024-01-25T19:11:28;9.97;;;5.97;;
10661;SDS011;5379;51.034;7.006;2024-01-25T19:14:00;8.00;;;4.63;;
10661;SDS011;5379;51.034;7.006;2024-01-25T19:16:27;16.10;;;4.67;;
10661;SDS011;5379;51.034;7.006;2024-01-25T19:18:53;15.13;;;6.93;;
10661;SDS011;5379;51.034;7.006;2024-01-25T19:21:20;12.30;;;5.97;;
10661;SDS011;5379;51.034;7.006;2024-01-25T19:23:47;8.90;;;4.73;;
10661;SDS011;5379;51.034;7.006;2024-01-25T19:26:14;9.40;;;5.63;;